Time;durP1;ratioP1;P1;durP2;ratioP2;P2;SDS_P1;SDS_P2;PMS_P1;PMS_P2;Temp;Humidity;BMP_temperature;BMP_pressure;BME280_temperature;BME280_humidity;BME280_pressure;Samples;Min_cycle;Max_cycle;Signal;HPM_P1;HPM_P2
2022/09/30 00:00:30;;;;;;;11.00;9.30;;;;;;;14.93;100.00;99625.08;1761239;80;21612;-74
2022/09/30 00:02:56;;;;;;;13.98;9.83;;;;;;;14.95;100.00;99624.85;1773641;80;21087;-71
2022/09/30 00:05:23;;;;;;;9.25;8.35;;;;;;;14.95;100.00;99631.03;1773951;79;21005;-72
2022/09/30 00:07:49;;;;;;;;;;;;;;;14.98;100.00;99631.10;1760881;80;21454;-73
2022/09/30 00:10:16;;;;;;;11.00;8.93;;;;;;;15.01;100.00;99627.93;1776368;79;20142;-72
2022/09/30 00:12:43;;;;;;;8.98;8.18;;;;;;;15.01;100.00;99628.46;1777124;79;20984;-73
2022/09/30 00:15:11;;;;;;;9.40;8.50;;;;;;;15.04;100.00;99621.30;1765377;79;21468;-72
2022/09/30 00:17:37;;;;;;;10.05;9.15;;;;;;;15.08;100.00;99622.45;1767295;79;21030;-73
2022/09/30 00:20:05;;;;;;;9.98;8.05;;;;;;;15.09;100.00;99618.20;1772332;79;21050;-71
2022/09/30 00:22:31;;;;;;;9.05;7.75;;;;;;;15.11;100.00;99618.77;1778085;79;21027;-71
2022/09/30 00:24:58;;;;;;;8.80;6.92;;;;;;;15.10;100.00;99618.47;1782040;79;20992;-71
2022/09/30 00:27:24;;;;;;;8.63;7.70;;;;;;;15.12;100.00;99622.27;1781467;80;21602;-71
2022/09/30 00:29:50;;;;;;;7.30;6.70;;;;;;;15.13;100.00;99624.72;1779717;79;20972;-71
2022/09/30 00:32:16;;;;;;;10.58;7.22;;;;;;;15.15;100.00;99629.33;1763056;79;21077;-72
2022/09/30 00:34:43;;;;;;;7.10;6.40;;;;;;;15.18;100.00;99629.38;1753536;79;21042;-72
2022/09/30 00:37:10;;;;;;;10.65;6.20;;;;;;;15.22;100.00;99627.87;1774213;79;20995;-72
2022/09/30 00:39:36;;;;;;;6.92;6.37;;;;;;;15.25;100.00;99627.91;1735509;80;21031;-72
2022/09/30 00:42:07;;;;;;;6.58;5.97;;;;;;;15.28;100.00;99624.23;1750521;80;20995;-72
2022/09/30 00:44:50;;;;;;;7.30;6.58;;;;;;;15.35;100.00;99634.32;1781472;79;21006;-72
2022/09/30 00:47:33;;;;;;;8.10;6.50;;;;;;;15.38;100.00;99638.39;1779809;80;21062;-72
2022/09/30 00:50:14;;;;;;;9.15;6.42;;;;;;;15.42;100.00;99642.77;1762720;79;20970;-71
2022/09/30 00:52:43;;;;;;;6.62;6.03;;;;;;;15.43;100.00;99647.09;1769694;79;20957;-71
2022/09/30 00:55:15;;;;;;;7.17;5.92;;;;;;;15.47;100.00;99650.40;1782347;80;20981;-73
2022/09/30 00:57:41;;;;;;;5.60;5.05;;;;;;;15.48;100.00;99656.08;1735123;80;21734;-72
2022/09/30 01:00:09;;;;;;;6.25;5.65;;;;;;;15.52;100.00;99645.64;1751875;80;21515;-72
2022/09/30 01:02:35;;;;;;;6.10;5.55;;;;;;;15.55;100.00;99656.73;1733551;82;21110;-72
2022/09/30 01:05:02;;;;;;;5.55;5.05;;;;;;;15.57;100.00;99653.81;1734366;82;21562;-71
2022/09/30 01:07:29;;;;;;;10.93;4.67;;;;;;;15.60;100.00;99661.41;1738160;82;21013;-76
2022/09/30 01:09:56;;;;;;;6.28;4.75;;;;;;;15.64;100.00;99664.44;1735639;82;21065;-74
2022/09/30 01:12:25;;;;;;;6.10;5.10;;;;;;;15.64;100.00;99659.06;1736701;81;21036;-71
2022/09/30 01:14:54;;;;;;;6.60;4.55;;;;;;;15.64;100.00;99654.50;1736898;81;21041;-71
2022/09/30 01:17:48;;;;;;;5.22;4.30;;;;;;;15.65;100.00;99655.30;1738263;81;21057;-71
2022/09/30 01:20:44;;;;;;;5.45;4.12;;;;;;;15.66;100.00;99657.77;1730202;81;21041;-72
2022/09/30 01:23:25;;;;;;;6.70;4.62;;;;;;;15.65;100.00;99660.17;1709680;82;21033;-71
2022/09/30 01:26:19;;;;;;;5.72;4.97;;;;;;;15.62;100.00;99660.64;1711340;82;21168;-72
2022/09/30 01:29:24;;;;;;;5.08;4.55;;;;;;;15.60;100.00;99656.03;1735777;81;21675;-72
2022/09/30 01:32:20;;;;;;;4.55;4.17;;;;;;;15.60;100.00;99652.01;1741529;81;21016;-71
2022/09/30 01:35:28;;;;;;;6.87;5.15;;;;;;;15.58;100.00;99652.77;1740768;81;21777;-73
2022/09/30 01:38:29;;;;;;;5.03;4.33;;;;;;;15.55;100.00;99659.42;1747948;81;21139;-71
2022/09/30 01:41:09;;;;;;;4.10;3.75;;;;;;;15.54;100.00;99654.31;1730159;81;21003;-71
2022/09/30 01:43:54;;;;;;;4.55;4.17;;;;;;;15.55;100.00;99663.98;1737497;81;20962;-71
2022/09/30 01:46:49;;;;;;;5.12;3.65;;;;;;;15.55;100.00;99664.79;1733805;81;21685;-71
2022/09/30 01:49:44;;;;;;;5.75;4.35;;;;;;;15.55;100.00;99668.02;1722725;81;21040;-71
2022/09/30 01:52:27;;;;;;;6.08;4.87;;;;;;;15.51;100.00;99669.55;1725559;81;21097;-72
2022/09/30 01:55:16;;;;;;;4.20;3.80;;;;;;;15.50;100.00;99675.95;1724493;81;21155;-72
2022/09/30 01:58:15;;;;;;;4.75;4.42;;;;;;;15.49;100.00;99673.00;1736474;81;20975;-72
2022/09/30 02:02:29;;;;;;;4.70;3.95;;;;;;;15.53;100.00;99670.92;1748170;79;22591;-71
2022/09/30 02:05:04;;;;;;;5.47;5.00;;;;;;;15.51;100.00;99669.55;1725125;81;21002;-72
2022/09/30 02:07:39;;;;;;;4.87;4.47;;;;;;;15.28;100.00;99635.51;1699839;81;21735;-72
2022/09/30 02:10:23;;;;;;;4.83;4.33;;;;;;;15.52;100.00;99676.03;1715544;82;21362;-71
2022/09/30 02:13:00;;;;;;;6.00;3.92;;;;;;;15.51;100.00;99669.55;1714313;82;21072;-71
2022/09/30 02:15:31;;;;;;;4.05;3.85;;;;;;;15.50;100.00;99669.23;1722009;81;21092;-72
2022/09/30 02:18:03;;;;;;;5.37;4.30;;;;;;;15.48;100.00;99665.47;1728867;82;21070;-72
2022/09/30 02:20:34;;;;;;;4.90;4.50;;;;;;;15.47;100.00;99667.05;1720952;81;21029;-71
2022/09/30 02:23:18;;;;;;;5.10;4.58;;;;;;;15.43;100.00;99670.73;1723807;81;21017;-72
2022/09/30 02:25:49;;;;;;;5.90;5.40;;;;;;;15.41;100.00;99672.84;1726186;82;21030;-74
2022/09/30 02:28:25;;;;;;;4.87;4.35;;;;;;;15.12;100.00;99630.31;1718631;81;20977;-72
2022/09/30 02:30:55;;;;;;;7.00;4.72;;;;;;;15.40;100.00;99677.91;1726606;81;21048;-72
2022/09/30 02:33:31;;;;;;;7.22;4.08;;;;;;;15.40;100.00;99675.75;1729795;80;20981;-72
2022/09/30 02:36:04;;;;;;;5.17;4.67;;;;;;;15.39;100.00;99676.29;1720059;80;21047;-72
2022/09/30 02:38:37;;;;;;;5.55;5.05;;;;;;;15.36;100.00;99665.47;1738200;80;21459;-72
2022/09/30 02:41:09;;;;;;;6.60;5.30;;;;;;;15.34;100.00;99670.27;1723680;81;20994;-71
2022/09/30 02:43:37;;;;;;;5.47;4.78;;;;;;;15.29;100.00;99667.47;1714504;82;21162;-73
2022/09/30 02:46:26;;;;;;;6.78;4.67;;;;;;;15.25;100.00;99666.31;1724209;81;21006;-70
2022/09/30 02:49:13;;;;;;;5.50;5.10;;;;;;;15.21;100.00;99664.34;1729397;82;21017;-72
2022/09/30 02:51:50;;;;;;;5.40;4.90;;;;;;;15.18;100.00;99668.30;1720619;82;21033;-71
2022/09/30 02:54:43;;;;;;;6.62;6.00;;;;;;;15.16;100.00;99671.74;1689216;82;21037;-71
2022/09/30 02:57:43;;;;;;;6.58;5.62;;;;;;;15.15;100.00;99672.81;1731348;81;21528;-72
2022/09/30 03:00:09;;;;;;;6.08;5.58;;;;;;;15.12;100.00;99675.41;1704906;81;21073;-72
2022/09/30 03:02:35;;;;;;;;;;;;;;;15.09;100.00;99678.59;1742173;81;21468;-72
2022/09/30 03:05:03;;;;;;;6.33;5.83;;;;;;;15.09;100.00;99677.78;1737769;81;20179;-71
2022/09/30 03:07:30;;;;;;;6.33;5.78;;;;;;;15.04;100.00;99674.97;1738022;81;21021;-72
2022/09/30 03:10:00;;;;;;;7.00;5.83;;;;;;;15.05;100.00;99676.59;1740183;81;21096;-73
2022/09/30 03:12:59;;;;;;;7.47;6.67;;;;;;;15.06;100.00;99679.58;1737865;81;21619;-72
2022/09/30 03:15:43;;;;;;;6.62;6.03;;;;;;;15.08;100.00;99685.53;1736932;81;20962;-72
2022/09/30 03:18:36;;;;;;;7.65;6.87;;;;;;;15.07;100.00;99685.22;1728847;81;22366;-73
2022/09/30 03:21:13;;;;;;;7.12;4.78;;;;;;;15.09;100.00;99675.09;1741434;81;21578;-71
2022/09/30 03:23:52;;;;;;;6.72;6.05;;;;;;;15.10;100.00;99678.86;1747597;80;21006;-72
2022/09/30 03:26:48;;;;;;;8.40;7.60;;;;;;;15.10;100.00;99687.45;1762263;81;21059;-74
2022/09/30 03:29:29;;;;;;;7.70;6.03;;;;;;;15.09;100.00;99688.52;1759824;81;20974;-71
2022/09/30 03:32:30;;;;;;;7.87;7.12;;;;;;;15.06;100.00;99688.44;1751423;81;21595;-73
2022/09/30 03:35:04;;;;;;;7.83;6.72;;;;;;;15.03;100.00;99697.48;1720993;82;21056;-72
2022/09/30 03:37:59;;;;;;;8.20;7.15;;;;;;;14.99;100.00;99700.65;1701874;84;20991;-72
2022/09/30 03:40:31;;;;;;;8.80;7.92;;;;;;;14.96;100.00;99707.81;1697149;84;21582;-71
2022/09/30 03:43:12;;;;;;;7.78;6.90;;;;;;;14.94;100.00;99713.94;1703872;84;21023;-71
2022/09/30 03:45:47;;;;;;;7.03;6.42;;;;;;;14.96;100.00;99715.86;1663781;84;21110;-71
2022/09/30 03:48:15;;;;;;;10.05;8.15;;;;;;;14.97;100.00;99714.83;1663930;85;21027;-74
2022/09/30 03:50:43;;;;;;;9.05;6.85;;;;;;;14.99;100.00;99715.41;1660951;86;21075;-72
2022/09/30 03:53:11;;;;;;;10.55;7.30;;;;;;;15.03;100.00;99708.21;1660655;85;21089;-71
2022/09/30 03:55:49;;;;;;;11.78;8.15;;;;;;;15.06;100.00;99711.78;1665318;85;21678;-75
2022/09/30 03:58:18;;;;;;;9.15;7.75;;;;;;;15.09;100.00;99712.67;1660781;85;21559;-72
2022/09/30 04:00:49;;;;;;;10.65;8.98;;;;;;;15.10;100.00;99715.62;1661733;85;21114;-71
2022/09/30 04:03:17;;;;;;;11.78;8.55;;;;;;;15.10;100.00;99715.09;1663612;85;21019;-73
2022/09/30 04:05:43;;;;;;;12.65;8.98;;;;;;;15.13;100.00;99725.91;1662417;85;21559;-71
2022/09/30 04:08:09;;;;;;;8.78;7.87;;;;;;;15.14;100.00;99725.69;1665086;84;21179;-71
2022/09/30 04:10:35;;;;;;;11.75;10.23;;;;;;;15.16;100.00;99733.48;1666161;85;21007;-71
2022/09/30 04:13:01;;;;;;;11.68;9.93;;;;;;;15.19;100.00;99733.02;1650989;85;20987;-72
2022/09/30 04:15:27;;;;;;;;;;;;;;;15.22;100.00;99735.76;1666807;85;21078;-72
2022/09/30 04:17:54;;;;;;;14.33;9.70;;;;;;;15.18;100.00;99731.38;1660384;84;20141;-71
2022/09/30 04:20:20;;;;;;;10.93;9.85;;;;;;;15.22;100.00;99748.67;1663288;85;21074;-71
2022/09/30 04:22:46;;;;;;;10.50;9.40;;;;;;;15.24;100.00;99761.34;1670600;85;20983;-71
2022/09/30 04:25:12;;;;;;;14.73;10.25;;;;;;;15.26;100.00;99754.41;1672783;84;20999;-79
2022/09/30 04:27:39;;;;;;;14.35;10.70;;;;;;;15.23;100.00;99760.23;1666135;85;21573;-75
2022/09/30 04:30:05;;;;;;;13.43;9.90;;;;;;;15.22;100.00;99765.28;1666919;85;21725;-78
2022/09/30 04:32:32;;;;;;;11.63;10.55;;;;;;;15.18;100.00;99760.41;1654267;85;21027;-75
2022/09/30 04:34:58;;;;;;;;;;;;;;;15.13;100.00;99770.20;1670492;85;21062;-78
2022/09/30 04:37:24;;;;;;;12.43;11.18;;;;;;;15.09;100.00;99765.02;1664056;85;20132;-78
2022/09/30 04:39:50;;;;;;;19.20;12.93;;;;;;;14.99;100.00;99764.22;1663058;85;21087;-75
2022/09/30 04:42:17;;;;;;;13.35;10.45;;;;;;;14.95;100.00;99769.23;1661344;85;21518;-78
2022/09/30 04:44:43;;;;;;;13.48;10.95;;;;;;;14.95;100.00;99773.78;1666379;85;21009;-83
2022/09/30 04:47:09;;;;;;;12.60;11.30;;;;;;;14.95;100.00;99777.28;1663787;85;21074;-83
2022/09/30 04:49:35;;;;;;;13.45;11.93;;;;;;;14.96;100.00;99774.90;1665600;85;20971;-83
2022/09/30 04:52:01;;;;;;;14.30;12.78;;;;;;;14.95;100.00;99772.44;1693703;83;21057;-86
2022/09/30 04:54:27;;;;;;;13.98;11.70;;;;;;;14.96;100.00;99776.23;1699839;83;21017;-83
2022/09/30 04:56:54;;;;;;;13.90;11.00;;;;;;;14.98;100.00;99784.88;1688692;84;21113;-80
2022/09/30 04:59:20;;;;;;;14.33;12.70;;;;;;;14.98;100.00;99787.56;1675122;84;21112;-82
2022/09/30 05:01:46;;;;;;;14.60;12.13;;;;;;;14.97;100.00;99783.26;1656285;85;21130;-85
2022/09/30 05:04:15;;;;;;;16.30;12.43;;;;;;;14.97;100.00;99785.94;1663311;85;21669;-85
2022/09/30 05:06:41;;;;;;;13.10;11.73;;;;;;;14.98;100.00;99788.91;1651179;85;21479;-88
2022/09/30 05:09:07;;;;;;;13.98;12.10;;;;;;;15.03;100.00;99784.70;1660592;85;21078;-87
2022/09/30 05:11:33;;;;;;;14.55;12.88;;;;;;;15.06;100.00;99793.64;1673244;84;21557;-86
2022/09/30 05:14:00;;;;;;;16.80;12.40;;;;;;;15.06;100.00;99789.09;1660817;84;21607;-86
2022/09/30 05:16:26;;;;;;;13.45;11.38;;;;;;;15.07;100.00;99793.42;1666233;84;21011;-82
2022/09/30 05:18:53;;;;;;;15.80;11.97;;;;;;;15.03;100.00;99796.28;1662630;84;21054;-87
2022/09/30 05:21:19;;;;;;;15.03;11.30;;;;;;;14.98;100.00;99794.27;1682936;82;21060;-88
2022/09/30 05:23:46;;;;;;;14.83;11.18;;;;;;;14.94;100.00;99798.47;1698650;83;21086;-85
2022/09/30 05:26:12;;;;;;;14.10;12.07;;;;;;;14.90;100.00;99796.45;1663770;84;21062;-86
2022/09/30 05:28:40;;;;;;;13.32;11.95;;;;;;;14.89;100.00;99805.57;1686714;84;21011;-87
2022/09/30 05:31:07;;;;;;;13.40;12.18;;;;;;;14.89;100.00;99802.89;1709131;83;20975;-87
2022/09/30 05:33:34;;;;;;;14.47;12.13;;;;;;;14.92;100.00;99803.78;1667689;83;20984;-87
2022/09/30 05:36:03;;;;;;;;;;;;;;;14.90;100.00;99801.82;1671066;84;21045;-84
2022/09/30 05:38:30;;;;;;;14.95;11.75;;;;;;;14.87;100.00;99809.82;1698785;83;20169;-84
2022/09/30 05:40:57;;;;;;;11.57;10.63;;;;;;;14.79;100.00;99808.28;1686842;84;20990;-87
2022/09/30 05:43:23;;;;;;;13.98;12.73;;;;;;;14.84;100.00;99815.63;1698676;83;21002;-83
2022/09/30 05:45:55;;;;;;;16.48;11.50;;;;;;;14.89;100.00;99823.02;1652864;85;21006;-88
2022/09/30 05:48:23;;;;;;;15.70;11.80;;;;;;;14.93;100.00;99824.99;1676281;84;21491;-87
2022/09/30 05:50:56;;;;;;;14.20;12.03;;;;;;;14.97;100.00;99818.64;1709301;82;21040;-87
2022/09/30 05:53:23;;;;;;;26.40;21.07;;;;;;;14.98;100.00;99819.77;1677262;84;21038;-85
2022/09/30 05:55:51;;;;;;;14.30;12.80;;;;;;;14.99;100.00;99826.78;1666262;84;21526;-86
2022/09/30 05:58:18;;;;;;;12.45;11.35;;;;;;;14.99;100.00;99829.47;1665886;85;20987;-86
2022/09/30 06:00:47;;;;;;;13.85;12.45;;;;;;;15.02;100.00;99838.10;1661634;85;21535;-87
2022/09/30 06:03:16;;;;;;;13.13;11.83;;;;;;;15.01;100.00;99840.48;1664880;85;21539;-86
2022/09/30 06:05:44;;;;;;;13.08;11.80;;;;;;;15.05;100.00;99838.97;1660964;85;20987;-84
2022/09/30 06:08:12;;;;;;;12.33;11.22;;;;;;;15.11;100.00;99848.80;1700499;83;21018;-88
2022/09/30 06:10:42;;;;;;;17.32;13.38;;;;;;;15.15;100.00;99852.66;1709847;83;21474;-87
2022/09/30 06:13:09;;;;;;;17.73;12.40;;;;;;;15.17;100.00;99850.56;1703087;83;21125;-88
2022/09/30 06:15:38;;;;;;;14.33;12.82;;;;;;;15.20;100.00;99855.48;1707466;83;21331;-86
2022/09/30 06:18:05;;;;;;;15.48;13.15;;;;;;;15.26;100.00;99851.86;1685180;83;20991;-88
2022/09/30 06:20:32;;;;;;;16.55;14.45;;;;;;;15.32;100.00;99857.64;1679244;84;21144;-86
2022/09/30 06:23:02;;;;;;;20.65;13.58;;;;;;;15.36;100.00;99860.16;1683585;83;21082;-87
2022/09/30 06:25:30;;;;;;;14.83;13.25;;;;;;;15.43;100.00;99861.41;1670863;85;21020;-88
2022/09/30 06:27:57;;;;;;;14.15;12.37;;;;;;;15.49;100.00;99865.03;1668062;85;21042;-89
2022/09/30 06:30:23;;;;;;;16.75;13.58;;;;;;;15.54;100.00;99866.50;1657219;85;20999;-89
2022/09/30 06:32:55;;;;;;;15.23;12.90;;;;;;;15.60;100.00;99862.88;1663024;84;20986;-87
2022/09/30 06:35:23;;;;;;;15.25;13.50;;;;;;;15.66;100.00;99856.56;1663871;85;20979;-89
2022/09/30 06:37:51;;;;;;;16.60;14.15;;;;;;;15.67;100.00;99858.22;1660489;85;21033;-86
2022/09/30 06:40:18;;;;;;;17.12;15.23;;;;;;;15.61;100.00;99859.13;1666443;85;21015;-86
2022/09/30 06:42:44;;;;;;;17.10;14.68;;;;;;;15.55;100.00;99864.91;1664993;85;21038;-87
2022/09/30 06:45:11;;;;;;;15.08;13.00;;;;;;;15.54;100.00;99867.84;1665105;85;21011;-88
2022/09/30 06:47:38;;;;;;;16.80;14.28;;;;;;;15.55;100.00;99870.81;1666193;85;21138;-89
2022/09/30 06:50:05;;;;;;;17.75;15.98;;;;;;;15.54;100.00;99870.53;1653042;84;21044;-87
2022/09/30 06:52:31;;;;;;;17.32;14.90;;;;;;;15.53;100.00;99875.06;1650027;85;21589;-87
2022/09/30 06:54:57;;;;;;;16.90;14.98;;;;;;;15.54;100.00;99871.87;1667563;84;21497;-88
2022/09/30 06:57:26;;;;;;;16.32;13.50;;;;;;;15.54;100.00;99880.74;1666998;84;21003;-85
2022/09/30 06:59:53;;;;;;;18.67;13.03;;;;;;;15.54;100.00;99875.91;1657750;85;21858;-87
2022/09/30 07:02:20;;;;;;;18.92;15.25;;;;;;;15.59;100.00;99880.03;1681835;84;21081;-88
2022/09/30 07:04:50;;;;;;;14.95;13.45;;;;;;;15.63;100.00;99877.16;1676683;84;21082;-87
2022/09/30 07:07:20;;;;;;;15.00;13.50;;;;;;;15.70;100.00;99882.44;1677604;84;21497;-90
2022/09/30 07:09:47;;;;;;;16.10;14.40;;;;;;;15.72;100.00;99883.02;1655503;84;21036;-88
2022/09/30 07:12:13;;;;;;;15.88;14.13;;;;;;;15.77;100.00;99895.27;1709223;83;21009;-90
2022/09/30 07:14:40;;;;;;;;;;;;;;;15.79;100.00;99893.17;1714377;82;21086;-74
2022/09/30 07:17:06;;;;;;;17.30;15.23;;;;;;;15.80;100.00;99897.47;1721534;81;20126;-75
2022/09/30 07:19:34;;;;;;;19.05;14.53;;;;;;;15.75;100.00;99903.56;1708403;82;21180;-74
2022/09/30 07:24:46;;;;;;;17.32;15.63;;;;;;;15.78;100.00;99901.45;1672109;83;21525;-79
2022/09/30 07:27:12;;;;;;;;;;;;;;;15.81;100.00;99905.84;1679702;84;21058;-74
2022/09/30 07:29:40;;;;;;;19.70;15.93;;;;;;;15.86;100.00;99907.31;1692177;84;20146;-74
2022/09/30 07:32:07;;;;;;;17.25;15.45;;;;;;;15.88;100.00;99907.89;1668855;84;21516;-77
2022/09/30 07:34:36;;;;;;;20.52;16.17;;;;;;;15.96;100.00;99910.22;1695694;83;21654;-75
2022/09/30 07:37:04;;;;;;;17.75;14.85;;;;;;;16.02;100.00;99911.16;1646482;84;21037;-75
2022/09/30 07:39:30;;;;;;;23.02;19.07;;;;;;;16.08;100.00;99912.89;1669939;84;21006;-76
2022/09/30 07:41:56;;;;;;;18.85;16.50;;;;;;;16.15;100.00;99906.88;1657116;84;21077;-74
2022/09/30 07:44:25;;;;;;;18.10;16.23;;;;;;;16.23;100.00;99908.91;1693970;83;21109;-78
2022/09/30 07:46:50;;;;;;;19.15;17.12;;;;;;;16.30;100.00;99919.02;1697369;83;21619;-76
2022/09/30 07:49:24;;;;;;;18.30;16.50;;;;;;;16.31;100.00;99917.95;1714503;83;21006;-73
2022/09/30 07:51:51;;;;;;;22.67;20.12;;;;;;;16.25;100.00;99926.44;1694028;83;21050;-84
2022/09/30 07:54:24;;;;;;;20.12;17.80;;;;;;;16.25;100.00;99926.44;1694847;83;21010;-76
2022/09/30 07:56:51;;;;;;;19.30;17.40;;;;;;;16.25;100.00;99928.31;1699413;83;21076;-79
2022/09/30 07:59:18;;;;;;;20.10;17.95;;;;;;;16.26;100.00;99934.81;1701494;83;20999;-76
2022/09/30 08:01:46;;;;;;;19.92;17.92;;;;;;;16.29;100.00;99930.82;1667528;85;21619;-76
2022/09/30 08:04:14;;;;;;;19.85;17.60;;;;;;;16.24;100.00;99928.05;1683702;84;21019;-76
2022/09/30 08:06:45;;;;;;;20.32;18.30;;;;;;;16.23;100.00;99937.16;1699909;83;21020;-79
2022/09/30 08:09:14;;;;;;;19.52;17.50;;;;;;;16.22;100.00;99938.19;1715540;83;21013;-75
2022/09/30 08:11:41;;;;;;;20.45;18.40;;;;;;;16.22;100.00;99938.19;1722248;83;21153;-75
2022/09/30 08:14:15;;;;;;;22.13;19.75;;;;;;;16.27;100.00;99942.34;1699951;83;20998;-76
2022/09/30 08:16:42;;;;;;;21.48;19.37;;;;;;;16.27;100.00;99949.88;1704311;83;21130;-77
2022/09/30 08:19:15;;;;;;;21.90;19.60;;;;;;;16.30;100.00;99949.41;1704802;83;21109;-75
2022/09/30 08:21:44;;;;;;;20.75;18.82;;;;;;;16.24;100.00;99951.71;1721735;83;21471;-75
2022/09/30 08:24:11;;;;;;;20.37;18.17;;;;;;;16.24;100.00;99951.71;1714393;83;21162;-74
2022/09/30 08:26:38;;;;;;;21.40;19.20;;;;;;;16.21;100.00;99949.48;1666983;85;21153;-75
2022/09/30 08:29:05;;;;;;;22.60;19.05;;;;;;;16.22;100.00;99955.16;1666234;84;21071;-76
2022/09/30 08:31:32;;;;;;;19.57;17.57;;;;;;;16.25;100.00;99954.67;1677760;84;21090;-74
2022/09/30 08:33:59;;;;;;;21.05;18.75;;;;;;;16.31;100.00;99948.37;1686545;84;21042;-74
2022/09/30 08:36:26;;;;;;;20.50;18.32;;;;;;;16.40;100.00;99952.04;1655398;83;21600;-76
2022/09/30 08:38:53;;;;;;;20.77;18.62;;;;;;;16.43;100.00;99951.05;1712517;83;21087;-78
2022/09/30 08:41:40;;;;;;;20.60;18.30;;;;;;;16.45;100.00;99959.69;1716214;83;21123;-74
2022/09/30 08:44:34;;;;;;;20.80;18.73;;;;;;;16.48;100.00;99967.30;1706986;83;22149;-77
2022/09/30 08:47:33;;;;;;;17.45;15.50;;;;;;;16.52;100.00;99966.30;1705648;83;21005;-75
2022/09/30 08:50:16;;;;;;;21.20;18.07;;;;;;;16.61;100.00;99966.20;1709476;83;21057;-74
2022/09/30 08:52:52;;;;;;;21.20;19.10;;;;;;;16.69;100.00;99961.81;1705761;83;21069;-75
2022/09/30 08:55:26;;;;;;;20.90;18.92;;;;;;;16.74;100.00;99962.44;1656174;85;21604;-75
2022/09/30 08:57:55;;;;;;;20.23;18.23;;;;;;;16.80;100.00;99964.20;1660998;84;21099;-75
2022/09/30 09:00:22;;;;;;;23.90;19.55;;;;;;;16.86;100.00;99961.11;1726077;83;21283;-74
2022/09/30 09:03:00;;;;;;;18.30;16.60;;;;;;;16.90;100.00;99959.03;1700945;83;21811;-75
2022/09/30 09:05:48;;;;;;;19.70;17.62;;;;;;;16.99;100.00;99972.10;1690512;83;20989;-77
2022/09/30 09:08:35;;;;;;;21.12;18.92;;;;;;;17.06;100.00;99966.05;1707451;83;21018;-76
2022/09/30 09:11:08;;;;;;;21.27;19.20;;;;;;;17.04;100.00;99973.55;1697746;83;21684;-75
2022/09/30 09:13:49;;;;;;;23.40;20.68;;;;;;;17.04;100.00;99973.55;1691438;84;21005;-75
2022/09/30 09:16:45;;;;;;;19.75;17.80;;;;;;;17.01;100.00;99976.72;1711223;83;21034;-75
2022/09/30 09:19:23;;;;;;;19.42;17.65;;;;;;;17.06;100.00;99976.28;1690720;83;21065;-76
2022/09/30 09:21:59;;;;;;;21.48;18.07;;;;;;;17.13;100.00;99980.20;1703542;83;21038;-76
2022/09/30 09:24:43;;;;;;;21.07;19.05;;;;;;;17.19;100.00;99983.80;1751353;81;21144;-75
2022/09/30 09:27:38;;;;;;;18.42;16.67;;;;;;;17.24;100.00;99984.72;1757268;80;21040;-77
2022/09/30 09:30:12;;;;;;;22.98;18.70;;;;;;;17.28;100.00;99990.45;1685194;83;21553;-75
2022/09/30 09:32:39;;;;;;;22.07;19.82;;;;;;;17.29;100.00;99987.52;1691962;83;21061;-76
2022/09/30 09:35:15;;;;;;;21.00;18.92;;;;;;;17.27;100.00;99992.33;1693109;81;21109;-76
2022/09/30 09:38:24;;;;;;;21.45;19.48;;;;;;;17.26;100.00;99993.91;1758475;80;21049;-75
2022/09/30 09:41:18;;;;;;;21.60;19.30;;;;;;;17.21;100.00;99985.19;1756276;80;21039;-76
2022/09/30 09:44:26;;;;;;;23.07;20.80;;;;;;;17.21;100.00;99998.66;1759869;80;21005;-76
2022/09/30 09:47:04;;;;;;;;;;;;;;;17.20;100.00;99997.03;1760109;81;21041;-76
2022/09/30 09:49:33;;;;;;;24.92;20.48;;;;;;;17.20;100.00;99997.03;1766148;80;20116;-76
2022/09/30 09:52:17;;;;;;;21.60;19.55;;;;;;;17.21;100.00;99996.50;1746477;80;21057;-74
2022/09/30 09:54:55;;;;;;;21.75;19.65;;;;;;;17.27;100.00;100000.41;1740955;81;21026;-76
2022/09/30 09:57:26;;;;;;;20.52;18.23;;;;;;;17.31;100.00;99995.36;1727676;81;21899;-76
2022/09/30 10:01:07;;;;;;;20.75;18.65;;;;;;;17.31;100.00;99995.36;1743517;81;21101;-73
2022/09/30 10:02:31;;;;;;;19.62;17.80;;;;;;;17.35;100.00;99993.81;1752416;81;21188;-75
2022/09/30 10:05:02;;;;;;;20.92;18.92;;;;;;;17.42;100.00;99990.95;1759091;80;21017;-75
2022/09/30 10:07:32;;;;;;;20.92;18.87;;;;;;;17.56;100.00;99988.80;1749410;80;21094;-75
2022/09/30 10:10:17;;;;;;;25.95;23.38;;;;;;;17.73;100.00;99988.27;1755567;80;21001;-75
2022/09/30 10:12:47;;;;;;;23.67;20.90;;;;;;;17.87;100.00;99988.79;1741924;80;21144;-76
2022/09/30 10:15:25;;;;;;;21.42;19.20;;;;;;;18.05;100.00;99995.83;1754155;81;21067;-76
2022/09/30 10:17:56;;;;;;;18.42;16.82;;;;;;;18.20;100.00;99987.96;1759459;80;20997;-76
2022/09/30 10:20:31;;;;;;;19.17;17.42;;;;;;;18.33;98.32;99988.66;1750915;80;21172;-76
2022/09/30 10:23:18;;;;;;;18.05;16.20;;;;;;;18.40;97.79;99992.84;1755096;80;21121;-75
2022/09/30 10:26:02;;;;;;;21.12;18.48;;;;;;;18.44;96.92;99990.44;1742469;80;21605;-84
2022/09/30 10:28:33;;;;;;;21.57;18.05;;;;;;;18.43;96.86;99992.87;1754385;80;21734;-74
2022/09/30 10:31:06;;;;;;;24.45;18.82;;;;;;;18.48;96.87;99998.34;1751556;81;21057;-76
2022/09/30 10:33:42;;;;;;;17.85;15.90;;;;;;;18.53;96.33;100001.63;1756224;79;21054;-76
2022/09/30 10:36:17;;;;;;;19.87;17.45;;;;;;;18.58;96.26;100001.17;1756049;80;21396;-75
2022/09/30 10:39:00;;;;;;;18.92;17.12;;;;;;;18.63;95.99;100003.95;1751816;81;21144;-75
2022/09/30 10:41:30;;;;;;;18.20;16.05;;;;;;;18.74;95.78;99996.80;1754484;79;21313;-74
2022/09/30 10:44:04;;;;;;;18.62;16.70;;;;;;;18.85;94.95;100001.30;1749424;80;21033;-77
2022/09/30 10:46:35;;;;;;;18.52;16.90;;;;;;;18.91;94.49;99998.12;1746014;81;20978;-81
2022/09/30 10:49:26;;;;;;;20.57;18.17;;;;;;;18.99;93.96;99998.22;1758512;80;21515;-80
2022/09/30 10:51:55;;;;;;;21.70;16.97;;;;;;;19.03;93.01;99999.33;1764601;80;21064;-80
2022/09/30 10:54:51;;;;;;;23.12;16.42;;;;;;;19.05;93.11;99998.00;1758033;79;21023;-80
2022/09/30 10:57:28;;;;;;;18.20;16.45;;;;;;;19.14;92.73;100004.33;1745028;81;21011;-78
2022/09/30 11:00:08;;;;;;;20.82;18.55;;;;;;;19.13;91.98;100002.14;1748034;81;20986;-76
2022/09/30 11:02:56;;;;;;;21.50;18.48;;;;;;;19.07;91.50;99995.05;1757443;80;21085;-83
2022/09/30 11:05:46;;;;;;;18.75;16.65;;;;;;;19.06;91.91;99996.95;1741876;80;21133;-78
2022/09/30 11:08:29;;;;;;;20.37;17.55;;;;;;;19.13;92.05;100000.78;1756004;80;21037;-77
2022/09/30 11:11:30;;;;;;;22.62;18.50;;;;;;;19.20;91.58;100006.01;1757960;80;21021;-80
2022/09/30 11:14:40;;;;;;;19.45;17.42;;;;;;;19.26;91.29;100007.14;1765914;80;21073;-76
2022/09/30 11:17:18;;;;;;;20.88;18.90;;;;;;;19.32;90.71;100001.26;1750127;80;21151;-78
2022/09/30 11:20:21;;;;;;;19.25;17.25;;;;;;;19.40;90.49;100006.73;1761259;80;21148;-79
2022/09/30 11:23:13;;;;;;;18.92;17.12;;;;;;;19.44;89.88;100013.30;1758705;81;22250;-77
2022/09/30 11:25:52;;;;;;;17.45;15.83;;;;;;;19.38;89.64;100013.77;1767229;80;21112;-77
2022/09/30 11:28:48;;;;;;;18.10;16.48;;;;;;;19.31;90.26;100021.27;1749459;80;21029;-77
2022/09/30 11:31:36;;;;;;;18.85;17.17;;;;;;;19.24;90.58;100030.91;1748683;81;21604;-78
2022/09/30 11:34:26;;;;;;;21.90;18.80;;;;;;;19.18;90.97;100038.67;1761760;80;21025;-79
2022/09/30 11:37:20;;;;;;;26.50;21.80;;;;;;;19.16;91.37;100035.95;1763942;80;21588;-77
2022/09/30 11:40:13;;;;;;;27.62;22.05;;;;;;;19.20;91.34;100034.38;1722750;82;21100;-79
2022/09/30 11:43:13;;;;;;;27.55;20.48;;;;;;;19.28;91.39;100031.75;1713592;83;21507;-79
2022/09/30 11:45:54;;;;;;;23.22;18.40;;;;;;;19.39;91.36;100034.31;1709033;83;21541;-80
2022/09/30 11:48:55;;;;;;;20.37;18.23;;;;;;;19.53;90.94;100029.30;1681277;84;21026;-82
2022/09/30 11:51:48;;;;;;;20.05;17.92;;;;;;;19.63;90.21;100034.83;1664779;83;21556;-77
2022/09/30 11:54:43;;;;;;;22.27;16.82;;;;;;;19.71;89.79;100045.71;1728133;83;21554;-77